sensor_id;sensor_type;location;lat;lon;timestamp;pressure;altitude;pressure_sealevel;temperature
65316;BMP280;51920;53.952;10.292;2023-05-16T00:00:50;100790.25;;;10.11
65316;BMP280;51920;53.952;10.292;2023-05-16T00:03:20;100793.03;;;10.22
65316;BMP280;51920;53.952;10.292;2023-05-16T00:05:47;100795.69;;;10.15
65316;BMP280;51920;53.952;10.292;2023-05-16T00:08:14;100794.81;;;10.07
65316;BMP280;51920;53.952;10.292;2023-05-16T00:10:40;100793.75;;;10.15
65316;BMP280;51920;53.952;10.292;2023-05-16T00:13:07;100790.25;;;10.11
65316;BMP280;51920;53.952;10.292;2023-05-16T00:15:35;100788.94;;;9.98
65316;BMP280;51920;53.952;10.292;2023-05-16T00:18:03;100786.22;;;9.98
65316;BMP280;51920;53.952;10.292;2023-05-16T00:20:30;100788.09;;;9.90
65316;BMP280;51920;53.952;10.292;2023-05-16T00:22:57;100793.88;;;9.89
65316;BMP280;51920;53.952;10.292;2023-05-16T00:25:27;100805.09;;;9.91
65316;BMP280;51920;53.952;10.292;2023-05-16T00:27:54;100793.47;;;9.87
65316;BMP280;51920;53.952;10.292;2023-05-16T00:30:20;100786.16;;;9.91
65316;BMP280;51920;53.952;10.292;2023-05-16T00:32:50;100786.41;;;9.79
65316;BMP280;51920;53.952;10.292;2023-05-16T00:35:17;100791.09;;;9.82
65316;BMP280;51920;53.952;10.292;2023-05-16T00:37:43;100794.22;;;9.84
65316;BMP280;51920;53.952;10.292;2023-05-16T00:40:10;100793.44;;;9.83
65316;BMP280;51920;53.952;10.292;2023-05-16T00:42:38;100796.44;;;9.75
65316;BMP280;51920;53.952;10.292;2023-05-16T00:45:05;100780.88;;;9.68
65316;BMP280;51920;53.952;10.292;2023-05-16T00:47:32;100784.75;;;9.70
65316;BMP280;51920;53.952;10.292;2023-05-16T00:49:59;100790.63;;;9.72
65316;BMP280;51920;53.952;10.292;2023-05-16T00:52:25;100802.63;;;9.79
65316;BMP280;51920;53.952;10.292;2023-05-16T00:54:52;100811.88;;;9.78
65316;BMP280;51920;53.952;10.292;2023-05-16T00:57:19;100803.47;;;9.86
65316;BMP280;51920;53.952;10.292;2023-05-16T00:59:46;100808.22;;;9.93
65316;BMP280;51920;53.952;10.292;2023-05-16T01:02:13;100812.22;;;10.06
65316;BMP280;51920;53.952;10.292;2023-05-16T01:04:40;100808.34;;;10.07
65316;BMP280;51920;53.952;10.292;2023-05-16T01:07:08;100814.50;;;10.04
65316;BMP280;51920;53.952;10.292;2023-05-16T01:09:34;100818.41;;;10.07
65316;BMP280;51920;53.952;10.292;2023-05-16T01:15:04;100826.22;;;10.15
65316;BMP280;51920;53.952;10.292;2023-05-16T01:20:32;100823.22;;;10.24
65316;BMP280;51920;53.952;10.292;2023-05-16T01:23:16;100831.03;;;10.33
65316;BMP280;51920;53.952;10.292;2023-05-16T01:28:15;100826.44;;;10.37
65316;BMP280;51920;53.952;10.292;2023-05-16T01:30:43;100820.97;;;10.33
65316;BMP280;51920;53.952;10.292;2023-05-16T01:33:10;100812.50;;;10.39
65316;BMP280;51920;53.952;10.292;2023-05-16T01:35:50;100813.72;;;10.45
65316;BMP280;51920;53.952;10.292;2023-05-16T01:38:29;100809.47;;;10.44
65316;BMP280;51920;53.952;10.292;2023-05-16T01:44:31;100820.78;;;10.56
65316;BMP280;51920;53.952;10.292;2023-05-16T01:47:00;100825.06;;;10.54
65316;BMP280;51920;53.952;10.292;2023-05-16T01:50:00;100803.34;;;10.50
65316;BMP280;51920;53.952;10.292;2023-05-16T01:52:37;100827.78;;;10.57
65316;BMP280;51920;53.952;10.292;2023-05-16T01:55:10;100822.75;;;10.60
65316;BMP280;51920;53.952;10.292;2023-05-16T01:57:38;100821.91;;;10.55
65316;BMP280;51920;53.952;10.292;2023-05-16T02:00:06;100821.22;;;10.62
65316;BMP280;51920;53.952;10.292;2023-05-16T02:02:39;100823.50;;;10.56
65316;BMP280;51920;53.952;10.292;2023-05-16T02:05:07;100804.03;;;10.40
65316;BMP280;51920;53.952;10.292;2023-05-16T02:07:35;100820.34;;;10.51
65316;BMP280;51920;53.952;10.292;2023-05-16T02:10:01;100830.47;;;10.57
65316;BMP280;51920;53.952;10.292;2023-05-16T02:12:28;100828.13;;;10.56
65316;BMP280;51920;53.952;10.292;2023-05-16T02:14:54;100831.25;;;10.58
65316;BMP280;51920;53.952;10.292;2023-05-16T02:17:21;100824.25;;;10.53
65316;BMP280;51920;53.952;10.292;2023-05-16T02:19:47;100821.91;;;10.52
65316;BMP280;51920;53.952;10.292;2023-05-16T02:22:14;100834.31;;;10.56
65316;BMP280;51920;53.952;10.292;2023-05-16T02:24:41;100842.13;;;10.62
65316;BMP280;51920;53.952;10.292;2023-05-16T02:27:07;100827.63;;;10.43
65316;BMP280;51920;53.952;10.292;2023-05-16T02:29:35;100824.88;;;10.36
65316;BMP280;51920;53.952;10.292;2023-05-16T02:32:01;100845.88;;;10.50
65316;BMP280;51920;53.952;10.292;2023-05-16T02:34:28;100848.22;;;10.55
65316;BMP280;51920;53.952;10.292;2023-05-16T02:36:54;100832.63;;;10.41
65316;BMP280;51920;53.952;10.292;2023-05-16T02:39:21;100836.09;;;10.38
65316;BMP280;51920;53.952;10.292;2023-05-16T02:41:49;100838.47;;;10.43
65316;BMP280;51920;53.952;10.292;2023-05-16T02:44:16;100834.63;;;10.44
65316;BMP280;51920;53.952;10.292;2023-05-16T02:46:42;100840.41;;;10.43
65316;BMP280;51920;53.952;10.292;2023-05-16T02:49:09;100835.00;;;10.46
65316;BMP280;51920;53.952;10.292;2023-05-16T02:51:37;100830.34;;;10.43
65316;BMP280;51920;53.952;10.292;2023-05-16T02:54:04;100829.56;;;10.43
65316;BMP280;51920;53.952;10.292;2023-05-16T02:56:30;100811.34;;;10.40
65316;BMP280;51920;53.952;10.292;2023-05-16T02:58:59;100824.88;;;10.36
65316;BMP280;51920;53.952;10.292;2023-05-16T03:01:25;100829.88;;;10.34
65316;BMP280;51920;53.952;10.292;2023-05-16T03:03:52;100831.09;;;10.40
65316;BMP280;51920;53.952;10.292;2023-05-16T03:06:18;100843.47;;;10.41
65316;BMP280;51920;53.952;10.292;2023-05-16T03:08:45;100847.38;;;10.44
65316;BMP280;51920;53.952;10.292;2023-05-16T03:11:13;100857.75;;;10.38
65316;BMP280;51920;53.952;10.292;2023-05-16T03:13:40;100854.28;;;10.38
65316;BMP280;51920;53.952;10.292;2023-05-16T03:16:07;100848.47;;;10.35
65316;BMP280;51920;53.952;10.292;2023-05-16T03:18:34;100850.47;;;10.42
65316;BMP280;51920;53.952;10.292;2023-05-16T03:21:01;100844.22;;;10.38
65316;BMP280;51920;53.952;10.292;2023-05-16T03:23:28;100862.50;;;10.48
65316;BMP280;51920;53.952;10.292;2023-05-16T03:25:55;100869.47;;;10.49
65316;BMP280;51920;53.952;10.292;2023-05-16T03:28:21;100868.34;;;10.50
65316;BMP280;51920;53.952;10.292;2023-05-16T03:30:48;100864.38;;;10.41
65316;BMP280;51920;53.952;10.292;2023-05-16T03:33:14;100861.25;;;10.39
65316;BMP280;51920;53.952;10.292;2023-05-16T03:35:42;100876.03;;;10.48
65316;BMP280;51920;53.952;10.292;2023-05-16T03:38:09;100867.13;;;10.44
65316;BMP280;51920;53.952;10.292;2023-05-16T03:40:35;100878.03;;;10.55
65316;BMP280;51920;53.952;10.292;2023-05-16T03:43:02;100884.25;;;10.59
65316;BMP280;51920;53.952;10.292;2023-05-16T03:45:29;100883.13;;;10.60
65316;BMP280;51920;53.952;10.292;2023-05-16T03:47:56;100862.09;;;10.46
65316;BMP280;51920;53.952;10.292;2023-05-16T03:50:23;100887.41;;;10.65
65316;BMP280;51920;53.952;10.292;2023-05-16T03:52:50;100887.41;;;10.65
65316;BMP280;51920;53.952;10.292;2023-05-16T03:55:20;100880.97;;;10.84
65316;BMP280;51920;53.952;10.292;2023-05-16T03:57:46;100870.03;;;10.69
65316;BMP280;51920;53.952;10.292;2023-05-16T04:00:15;100876.38;;;10.88
65316;BMP280;51920;53.952;10.292;2023-05-16T04:02:42;100883.78;;;10.94
65316;BMP280;51920;53.952;10.292;2023-05-16T04:05:10;100900.75;;;10.88
65316;BMP280;51920;53.952;10.292;2023-05-16T04:07:37;100897.38;;;11.02
65316;BMP280;51920;53.952;10.292;2023-05-16T04:10:04;100894.63;;;10.94
65316;BMP280;51920;53.952;10.292;2023-05-16T04:12:30;100884.94;;;10.97
65316;BMP280;51920;53.952;10.292;2023-05-16T04:14:57;100890.25;;;10.79
65316;BMP280;51920;53.952;10.292;2023-05-16T04:17:24;100896.00;;;10.74
65316;BMP280;51920;53.952;10.292;2023-05-16T04:19:51;100901.78;;;10.72
65316;BMP280;51920;53.952;10.292;2023-05-16T04:22:19;100900.50;;;10.59
65316;BMP280;51920;53.952;10.292;2023-05-16T04:24:46;100900.75;;;10.43
65316;BMP280;51920;53.952;10.292;2023-05-16T04:27:12;100913.16;;;10.44
65316;BMP280;51920;53.952;10.292;2023-05-16T04:29:39;100912.41;;;10.47
65316;BMP280;51920;53.952;10.292;2023-05-16T04:32:06;100916.94;;;10.77
65316;BMP280;51920;53.952;10.292;2023-05-16T04:34:33;100912.56;;;10.62
65316;BMP280;51920;53.952;10.292;2023-05-16T04:37:04;100910.09;;;10.49
65316;BMP280;51920;53.952;10.292;2023-05-16T04:39:33;100897.69;;;10.48
65316;BMP280;51920;53.952;10.292;2023-05-16T04:42:00;100914.75;;;10.49
65316;BMP280;51920;53.952;10.292;2023-05-16T04:44:27;100906.91;;;10.37
65316;BMP280;51920;53.952;10.292;2023-05-16T04:46:54;100926.22;;;10.39
65316;BMP280;51920;53.952;10.292;2023-05-16T04:49:21;100921.59;;;10.39
65316;BMP280;51920;53.952;10.292;2023-05-16T04:51:48;100913.81;;;10.34
65316;BMP280;51920;53.952;10.292;2023-05-16T04:54:15;100923.91;;;10.37
65316;BMP280;51920;53.952;10.292;2023-05-16T04:56:41;100922.34;;;10.36
65316;BMP280;51920;53.952;10.292;2023-05-16T04:59:08;100917.34;;;10.38
65316;BMP280;51920;53.952;10.292;2023-05-16T05:01:34;100934.47;;;10.49
65316;BMP280;51920;53.952;10.292;2023-05-16T05:04:02;100927.06;;;10.46
65316;BMP280;51920;53.952;10.292;2023-05-16T05:06:28;100932.59;;;10.57
65316;BMP280;51920;53.952;10.292;2023-05-16T05:08:55;100936.88;;;10.58
65316;BMP280;51920;53.952;10.292;2023-05-16T05:11:22;100931.50;;;10.62
65316;BMP280;51920;53.952;10.292;2023-05-16T05:13:49;100956.78;;;10.76
65316;BMP280;51920;53.952;10.292;2023-05-16T05:16:17;100964.16;;;10.76
65316;BMP280;51920;53.952;10.292;2023-05-16T05:18:43;100953.31;;;10.76
65316;BMP280;51920;53.952;10.292;2023-05-16T05:21:10;100948.66;;;10.76
65316;BMP280;51920;53.952;10.292;2023-05-16T05:23:37;100949.72;;;10.65
65316;BMP280;51920;53.952;10.292;2023-05-16T05:26:03;100958.63;;;10.65
65316;BMP280;51920;53.952;10.292;2023-05-16T05:28:30;100954.44;;;10.75
65316;BMP280;51920;53.952;10.292;2023-05-16T05:30:57;100966.88;;;10.76
65316;BMP280;51920;53.952;10.292;2023-05-16T05:33:26;100965.69;;;10.73
65316;BMP280;51920;53.952;10.292;2023-05-16T05:35:54;100955.06;;;10.57
65316;BMP280;51920;53.952;10.292;2023-05-16T05:38:21;100971.75;;;10.63
65316;BMP280;51920;53.952;10.292;2023-05-16T05:40:48;100958.91;;;10.56
65316;BMP280;51920;53.952;10.292;2023-05-16T05:43:15;100963.63;;;10.63
65316;BMP280;51920;53.952;10.292;2023-05-16T05:45:42;100951.13;;;10.92
65316;BMP280;51920;53.952;10.292;2023-05-16T05:48:10;100970.03;;;11.33
65316;BMP280;51920;53.952;10.292;2023-05-16T05:50:36;100977.69;;;11.83
65316;BMP280;51920;53.952;10.292;2023-05-16T05:53:03;100964.19;;;12.01
65316;BMP280;51920;53.952;10.292;2023-05-16T05:55:29;100953.69;;;11.89
65316;BMP280;51920;53.952;10.292;2023-05-16T05:57:56;100967.84;;;12.70
65316;BMP280;51920;53.952;10.292;2023-05-16T06:00:23;100977.56;;;12.60
65316;BMP280;51920;53.952;10.292;2023-05-16T06:02:50;100974.09;;;12.81
65316;BMP280;51920;53.952;10.292;2023-05-16T06:05:17;100979.50;;;12.70
65316;BMP280;51920;53.952;10.292;2023-05-16T06:07:43;100992.22;;;12.27
65316;BMP280;51920;53.952;10.292;2023-05-16T06:10:10;100986.69;;;11.94
65316;BMP280;51920;53.952;10.292;2023-05-16T06:12:36;100989.31;;;11.76
65316;BMP280;51920;53.952;10.292;2023-05-16T06:15:03;100989.31;;;11.76
65316;BMP280;51920;53.952;10.292;2023-05-16T06:17:29;100974.00;;;11.47
65316;BMP280;51920;53.952;10.292;2023-05-16T06:19:56;100993.44;;;11.59
65316;BMP280;51920;53.952;10.292;2023-05-16T06:22:23;101004.75;;;11.65
65316;BMP280;51920;53.952;10.292;2023-05-16T06:24:49;100999.34;;;11.72
65316;BMP280;51920;53.952;10.292;2023-05-16T06:27:16;100999.75;;;11.78
65316;BMP280;51920;53.952;10.292;2023-05-16T06:29:43;101007.88;;;11.74
65316;BMP280;51920;53.952;10.292;2023-05-16T06:32:09;100990.81;;;11.74
65316;BMP280;51920;53.952;10.292;2023-05-16T06:34:37;100977.25;;;11.70
65316;BMP280;51920;53.952;10.292;2023-05-16T06:37:04;101010.81;;;12.10
65316;BMP280;51920;53.952;10.292;2023-05-16T06:39:31;101007.44;;;12.56
65316;BMP280;51920;53.952;10.292;2023-05-16T06:41:57;101010.13;;;12.38
65316;BMP280;51920;53.952;10.292;2023-05-16T06:44:24;101021.66;;;12.10
65316;BMP280;51920;53.952;10.292;2023-05-16T06:46:50;101014.16;;;11.86
65316;BMP280;51920;53.952;10.292;2023-05-16T06:49:17;101012.16;;;11.72
65316;BMP280;51920;53.952;10.292;2023-05-16T06:51:43;101016.50;;;11.91
65316;BMP280;51920;53.952;10.292;2023-05-16T06:54:11;101019.75;;;12.21
65316;BMP280;51920;53.952;10.292;2023-05-16T06:56:37;101011.06;;;11.87
65316;BMP280;51920;53.952;10.292;2023-05-16T06:59:04;101019.41;;;12.37
65316;BMP280;51920;53.952;10.292;2023-05-16T07:01:30;101029.50;;;12.30
65316;BMP280;51920;53.952;10.292;2023-05-16T07:03:57;101031.44;;;12.40
65316;BMP280;51920;53.952;10.292;2023-05-16T07:06:24;101033.66;;;12.13
65316;BMP280;51920;53.952;10.292;2023-05-16T07:08:51;101039.22;;;12.41
65316;BMP280;51920;53.952;10.292;2023-05-16T07:11:17;101036.63;;;12.99
65316;BMP280;51920;53.952;10.292;2023-05-16T07:13:44;101031.88;;;12.45
65316;BMP280;51920;53.952;10.292;2023-05-16T07:16:10;101042.06;;;12.99
65316;BMP280;51920;53.952;10.292;2023-05-16T07:18:37;101028.09;;;13.00
65316;BMP280;51920;53.952;10.292;2023-05-16T07:21:04;101033.13;;;13.41
65316;BMP280;51920;53.952;10.292;2023-05-16T07:23:31;101047.88;;;13.37
65316;BMP280;51920;53.952;10.292;2023-05-16T07:25:58;101031.94;;;12.96
65316;BMP280;51920;53.952;10.292;2023-05-16T07:28:25;101050.22;;;13.09
65316;BMP280;51920;53.952;10.292;2023-05-16T07:30:51;101047.44;;;13.70
65316;BMP280;51920;53.952;10.292;2023-05-16T07:33:18;101043.09;;;13.94
65316;BMP280;51920;53.952;10.292;2023-05-16T07:35:44;101048.53;;;14.68
65316;BMP280;51920;53.952;10.292;2023-05-16T07:38:11;101041.81;;;14.24
65316;BMP280;51920;53.952;10.292;2023-05-16T07:40:38;101056.13;;;14.39
65316;BMP280;51920;53.952;10.292;2023-05-16T07:43:05;101042.66;;;14.73
65316;BMP280;51920;53.952;10.292;2023-05-16T07:45:31;101048.06;;;14.80
65316;BMP280;51920;53.952;10.292;2023-05-16T07:47:58;101041.72;;;14.42
65316;BMP280;51920;53.952;10.292;2023-05-16T07:50:25;101050.63;;;14.46
65316;BMP280;51920;53.952;10.292;2023-05-16T07:52:52;101052.50;;;14.60
65316;BMP280;51920;53.952;10.292;2023-05-16T07:55:19;101044.22;;;14.78
65316;BMP280;51920;53.952;10.292;2023-05-16T07:57:48;101046.38;;;15.39
65316;BMP280;51920;53.952;10.292;2023-05-16T08:00:16;101057.00;;;15.67
65316;BMP280;51920;53.952;10.292;2023-05-16T08:02:42;101050.13;;;15.90
65316;BMP280;51920;53.952;10.292;2023-05-16T08:05:09;101058.66;;;16.26
65316;BMP280;51920;53.952;10.292;2023-05-16T08:07:36;101054.31;;;16.29
65316;BMP280;51920;53.952;10.292;2023-05-16T08:10:03;101060.78;;;16.42
65316;BMP280;51920;53.952;10.292;2023-05-16T08:12:30;101059.81;;;15.98
65316;BMP280;51920;53.952;10.292;2023-05-16T08:14:56;101068.25;;;15.77
65316;BMP280;51920;53.952;10.292;2023-05-16T08:17:23;101066.03;;;15.23
65316;BMP280;51920;53.952;10.292;2023-05-16T08:19:50;101069.19;;;14.69
65316;BMP280;51920;53.952;10.292;2023-05-16T08:22:16;101069.19;;;14.73
65316;BMP280;51920;53.952;10.292;2023-05-16T08:24:43;101067.88;;;15.37
65316;BMP280;51920;53.952;10.292;2023-05-16T08:27:09;101067.47;;;15.38
65316;BMP280;51920;53.952;10.292;2023-05-16T08:29:37;101076.41;;;15.39
65316;BMP280;51920;53.952;10.292;2023-05-16T08:32:04;101073.47;;;15.60
65316;BMP280;51920;53.952;10.292;2023-05-16T08:34:31;101055.28;;;15.05
65316;BMP280;51920;53.952;10.292;2023-05-16T08:36:58;101071.31;;;15.82
65316;BMP280;51920;53.952;10.292;2023-05-16T08:39:25;101066.38;;;15.29
65316;BMP280;51920;53.952;10.292;2023-05-16T08:41:52;101061.91;;;15.08
65316;BMP280;51920;53.952;10.292;2023-05-16T08:44:19;101062.00;;;14.93
65316;BMP280;51920;53.952;10.292;2023-05-16T08:46:50;101062.31;;;15.44
65316;BMP280;51920;53.952;10.292;2023-05-16T08:49:18;101073.34;;;16.09
65316;BMP280;51920;53.952;10.292;2023-05-16T08:51:47;101065.34;;;16.22
65316;BMP280;51920;53.952;10.292;2023-05-16T08:54:14;101071.19;;;15.93
65316;BMP280;51920;53.952;10.292;2023-05-16T08:56:43;101067.59;;;15.65
65316;BMP280;51920;53.952;10.292;2023-05-16T08:59:11;101062.22;;;15.17
65316;BMP280;51920;53.952;10.292;2023-05-16T09:01:38;101066.44;;;15.97
65316;BMP280;51920;53.952;10.292;2023-05-16T09:04:06;101055.13;;;15.95
65316;BMP280;51920;53.952;10.292;2023-05-16T09:06:36;101058.19;;;16.01
65316;BMP280;51920;53.952;10.292;2023-05-16T09:09:03;101070.81;;;16.99
65316;BMP280;51920;53.952;10.292;2023-05-16T09:11:33;101054.88;;;17.38
65316;BMP280;51920;53.952;10.292;2023-05-16T09:14:01;101061.75;;;16.79
65316;BMP280;51920;53.952;10.292;2023-05-16T09:16:28;101064.69;;;16.41
65316;BMP280;51920;53.952;10.292;2023-05-16T09:18:57;101066.59;;;15.83
65316;BMP280;51920;53.952;10.292;2023-05-16T09:21:27;101055.66;;;14.55
65316;BMP280;51920;53.952;10.292;2023-05-16T09:23:54;101073.31;;;14.25
65316;BMP280;51920;53.952;10.292;2023-05-16T09:26:21;101073.88;;;13.77
65316;BMP280;51920;53.952;10.292;2023-05-16T09:28:48;101085.53;;;13.78
65316;BMP280;51920;53.952;10.292;2023-05-16T09:31:23;101092.56;;;13.79
65316;BMP280;51920;53.952;10.292;2023-05-16T09:33:52;101086.28;;;13.96
65316;BMP280;51920;53.952;10.292;2023-05-16T09:36:19;101074.06;;;14.26
65316;BMP280;51920;53.952;10.292;2023-05-16T09:38:46;101075.25;;;14.95
65316;BMP280;51920;53.952;10.292;2023-05-16T09:41:12;101085.69;;;15.86
65316;BMP280;51920;53.952;10.292;2023-05-16T09:43:40;101072.19;;;16.37
65316;BMP280;51920;53.952;10.292;2023-05-16T09:46:12;101083.50;;;16.08
65316;BMP280;51920;53.952;10.292;2023-05-16T09:48:44;101080.34;;;15.38
65316;BMP280;51920;53.952;10.292;2023-05-16T09:51:13;101067.63;;;14.68
65316;BMP280;51920;53.952;10.292;2023-05-16T09:53:40;101067.47;;;14.93
65316;BMP280;51920;53.952;10.292;2023-05-16T09:56:11;101080.53;;;15.58
65316;BMP280;51920;53.952;10.292;2023-05-16T09:58:41;101071.41;;;16.64
65316;BMP280;51920;53.952;10.292;2023-05-16T10:01:09;101070.53;;;16.94
65316;BMP280;51920;53.952;10.292;2023-05-16T10:03:38;101079.44;;;16.98
65316;BMP280;51920;53.952;10.292;2023-05-16T10:06:06;101091.03;;;17.29
65316;BMP280;51920;53.952;10.292;2023-05-16T10:08:34;101080.91;;;17.26
65316;BMP280;51920;53.952;10.292;2023-05-16T10:11:04;101079.19;;;17.12
65316;BMP280;51920;53.952;10.292;2023-05-16T10:13:35;101070.16;;;17.59
65316;BMP280;51920;53.952;10.292;2023-05-16T10:16:26;101064.22;;;17.40
65316;BMP280;51920;53.952;10.292;2023-05-16T10:18:53;101062.75;;;17.76
65316;BMP280;51920;53.952;10.292;2023-05-16T10:21:22;101061.78;;;17.86
65316;BMP280;51920;53.952;10.292;2023-05-16T10:23:50;101063.94;;;17.95
65316;BMP280;51920;53.952;10.292;2023-05-16T10:26:19;101067.84;;;16.90
65316;BMP280;51920;53.952;10.292;2023-05-16T10:28:47;101073.38;;;16.59
65316;BMP280;51920;53.952;10.292;2023-05-16T10:31:14;101055.13;;;16.26
65316;BMP280;51920;53.952;10.292;2023-05-16T10:33:41;101066.16;;;15.54
65316;BMP280;51920;53.952;10.292;2023-05-16T10:36:09;101063.16;;;14.96
65316;BMP280;51920;53.952;10.292;2023-05-16T10:38:37;101062.53;;;15.22
65316;BMP280;51920;53.952;10.292;2023-05-16T10:41:04;101060.97;;;15.97
65316;BMP280;51920;53.952;10.292;2023-05-16T10:43:37;101063.78;;;15.90
65316;BMP280;51920;53.952;10.292;2023-05-16T10:46:07;101071.00;;;15.77
65316;BMP280;51920;53.952;10.292;2023-05-16T10:48:39;101069.41;;;15.38
65316;BMP280;51920;53.952;10.292;2023-05-16T10:53:52;101066.28;;;16.66
65316;BMP280;51920;53.952;10.292;2023-05-16T10:56:24;101059.72;;;16.32
65316;BMP280;51920;53.952;10.292;2023-05-16T10:58:53;101068.09;;;15.91
65316;BMP280;51920;53.952;10.292;2023-05-16T11:06:25;101082.56;;;15.50
65316;BMP280;51920;53.952;10.292;2023-05-16T11:17:22;101076.81;;;17.38
65316;BMP280;51920;53.952;10.292;2023-05-16T11:19:51;101074.34;;;16.49
65316;BMP280;51920;53.952;10.292;2023-05-16T11:25:10;101079.34;;;15.62
65316;BMP280;51920;53.952;10.292;2023-05-16T11:27:45;101093.00;;;15.17
65316;BMP280;51920;53.952;10.292;2023-05-16T11:30:16;101123.06;;;14.51
65316;BMP280;51920;53.952;10.292;2023-05-16T11:32:44;101132.63;;;13.46
65316;BMP280;51920;53.952;10.292;2023-05-16T11:35:13;101133.34;;;13.03
65316;BMP280;51920;53.952;10.292;2023-05-16T11:37:41;101140.56;;;12.49
65316;BMP280;51920;53.952;10.292;2023-05-16T11:40:10;101145.50;;;12.33
65316;BMP280;51920;53.952;10.292;2023-05-16T11:42:42;101140.38;;;12.17
65316;BMP280;51920;53.952;10.292;2023-05-16T11:45:22;101146.38;;;12.44
65316;BMP280;51920;53.952;10.292;2023-05-16T11:47:50;101161.22;;;12.72
65316;BMP280;51920;53.952;10.292;2023-05-16T11:50:18;101144.19;;;12.85
65316;BMP280;51920;53.952;10.292;2023-05-16T11:52:48;101145.75;;;12.79
65316;BMP280;51920;53.952;10.292;2023-05-16T11:55:15;101155.47;;;12.91
65316;BMP280;51920;53.952;10.292;2023-05-16T11:57:49;101128.34;;;13.23
65316;BMP280;51920;53.952;10.292;2023-05-16T12:00:18;101131.84;;;13.52
65316;BMP280;51920;53.952;10.292;2023-05-16T12:02:46;101118.13;;;14.10
65316;BMP280;51920;53.952;10.292;2023-05-16T12:05:14;101120.75;;;14.46
65316;BMP280;51920;53.952;10.292;2023-05-16T12:07:52;101124.63;;;14.45
65316;BMP280;51920;53.952;10.292;2023-05-16T12:10:22;101116.94;;;14.14
65316;BMP280;51920;53.952;10.292;2023-05-16T12:12:49;101126.28;;;14.17
65316;BMP280;51920;53.952;10.292;2023-05-16T12:15:20;101125.44;;;14.31
65316;BMP280;51920;53.952;10.292;2023-05-16T12:17:47;101129.69;;;14.46
65316;BMP280;51920;53.952;10.292;2023-05-16T12:20:14;101143.03;;;14.19
65316;BMP280;51920;53.952;10.292;2023-05-16T12:22:45;101153.59;;;13.81
65316;BMP280;51920;53.952;10.292;2023-05-16T12:25:26;101173.75;;;13.08
65316;BMP280;51920;53.952;10.292;2023-05-16T12:27:54;101173.66;;;11.55
65316;BMP280;51920;53.952;10.292;2023-05-16T12:30:22;101179.47;;;11.16
65316;BMP280;51920;53.952;10.292;2023-05-16T12:33:07;101210.72;;;10.76
65316;BMP280;51920;53.952;10.292;2023-05-16T12:35:40;101214.06;;;10.66
65316;BMP280;51920;53.952;10.292;2023-05-16T12:38:11;101206.56;;;10.55
65316;BMP280;51920;53.952;10.292;2023-05-16T12:40:40;101211.97;;;10.55
65316;BMP280;51920;53.952;10.292;2023-05-16T12:43:19;101205.53;;;10.37
65316;BMP280;51920;53.952;10.292;2023-05-16T12:45:53;101209.78;;;10.34
65316;BMP280;51920;53.952;10.292;2023-05-16T12:48:21;101195.31;;;10.27
65316;BMP280;51920;53.952;10.292;2023-05-16T12:50:48;101194.22;;;10.31
65316;BMP280;51920;53.952;10.292;2023-05-16T12:53:17;101191.88;;;10.30
65316;BMP280;51920;53.952;10.292;2023-05-16T12:55:44;101193.13;;;10.36
65316;BMP280;51920;53.952;10.292;2023-05-16T12:58:11;101181.97;;;10.41
65316;BMP280;51920;53.952;10.292;2023-05-16T13:00:38;101197.97;;;10.50
65316;BMP280;51920;53.952;10.292;2023-05-16T13:03:05;101194.69;;;10.64
65316;BMP280;51920;53.952;10.292;2023-05-16T13:05:33;101197.59;;;10.78
65316;BMP280;51920;53.952;10.292;2023-05-16T13:08:01;101196.94;;;10.88
65316;BMP280;51920;53.952;10.292;2023-05-16T13:10:28;101197.28;;;11.17
65316;BMP280;51920;53.952;10.292;2023-05-16T13:12:55;101196.03;;;11.45
65316;BMP280;51920;53.952;10.292;2023-05-16T13:15:24;101183.47;;;11.70
65316;BMP280;51920;53.952;10.292;2023-05-16T13:17:51;101187.13;;;11.85
65316;BMP280;51920;53.952;10.292;2023-05-16T13:20:18;101180.34;;;12.16
65316;BMP280;51920;53.952;10.292;2023-05-16T13:22:45;101190.19;;;11.83
65316;BMP280;51920;53.952;10.292;2023-05-16T13:25:12;101193.28;;;11.82
65316;BMP280;51920;53.952;10.292;2023-05-16T13:27:38;101186.38;;;11.92
65316;BMP280;51920;53.952;10.292;2023-05-16T13:30:05;101190.19;;;11.83
65316;BMP280;51920;53.952;10.292;2023-05-16T13:32:32;101185.09;;;11.34
65316;BMP280;51920;53.952;10.292;2023-05-16T13:34:59;101183.03;;;11.24
65316;BMP280;51920;53.952;10.292;2023-05-16T13:37:25;101183.38;;;11.18
65316;BMP280;51920;53.952;10.292;2023-05-16T13:39:52;101180.81;;;10.99
65316;BMP280;51920;53.952;10.292;2023-05-16T13:42:21;101175.19;;;11.15
65316;BMP280;51920;53.952;10.292;2023-05-16T13:44:48;101186.72;;;11.46
65316;BMP280;51920;53.952;10.292;2023-05-16T13:47:15;101192.78;;;11.69
65316;BMP280;51920;53.952;10.292;2023-05-16T13:49:42;101186.19;;;11.70
65316;BMP280;51920;53.952;10.292;2023-05-16T13:52:08;101187.34;;;11.66
65316;BMP280;51920;53.952;10.292;2023-05-16T13:54:35;101183.19;;;11.82
65316;BMP280;51920;53.952;10.292;2023-05-16T13:57:02;101194.97;;;12.01
65316;BMP280;51920;53.952;10.292;2023-05-16T13:59:28;101194.88;;;11.90
65316;BMP280;51920;53.952;10.292;2023-05-16T14:02:06;101188.06;;;11.63
65316;BMP280;51920;53.952;10.292;2023-05-16T14:04:33;101192.34;;;11.67
65316;BMP280;51920;53.952;10.292;2023-05-16T14:07:00;101194.69;;;11.65
65316;BMP280;51920;53.952;10.292;2023-05-16T14:09:27;101186.13;;;11.63
65316;BMP280;51920;53.952;10.292;2023-05-16T14:11:53;101187.22;;;11.96
65316;BMP280;51920;53.952;10.292;2023-05-16T14:14:20;101173.78;;;12.17
65316;BMP280;51920;53.952;10.292;2023-05-16T14:16:46;101178.94;;;12.37
65316;BMP280;51920;53.952;10.292;2023-05-16T14:19:13;101171.94;;;12.36